createdAt,value
2022-11-24T00:00:36.789Z,97483.09
2022-11-24T00:01:38.541Z,97483.16
2022-11-24T00:02:40.061Z,97481.72
2022-11-24T00:03:42.060Z,97492.00
2022-11-24T00:04:43.505Z,97493.59
2022-11-24T00:05:44.981Z,97491.44
2022-11-24T00:06:46.970Z,97488.81
2022-11-24T00:07:48.457Z,97487.03
2022-11-24T00:08:50.294Z,97498.28
2022-11-24T00:09:51.730Z,97499.84
2022-11-24T00:10:53.128Z,97502.19
2022-11-24T00:11:54.892Z,97502.59
2022-11-24T00:12:56.328Z,97502.53
2022-11-24T00:13:58.593Z,97500.25
2022-11-24T00:15:00.064Z,97500.63
2022-11-24T00:16:23.333Z,97508.00
2022-11-24T00:17:25.044Z,97512.53
2022-11-24T00:18:27.329Z,97507.91
2022-11-24T00:19:28.773Z,97507.91
2022-11-24T00:20:30.272Z,97513.91
2022-11-24T00:21:33.080Z,97507.91
2022-11-24T00:22:34.487Z,97508.88
2022-11-24T00:23:36.414Z,97513.69
2022-11-24T00:24:37.966Z,97517.47
2022-11-24T00:25:39.369Z,97516.03
2022-11-24T00:26:41.176Z,97517.63
2022-11-24T00:27:42.620Z,97521.84
2022-11-24T00:28:45.570Z,97516.59
2022-11-24T00:29:46.979Z,97522.88
2022-11-24T00:30:48.508Z,97515.09
2022-11-24T00:31:50.362Z,97515.84
2022-11-24T00:32:52.989Z,97514.66
2022-11-24T00:33:57.958Z,97526.38
2022-11-24T00:34:59.393Z,97525.97
2022-11-24T00:36:01.109Z,97530.09
2022-11-24T00:37:02.869Z,97526.06
2022-11-24T00:38:04.284Z,97531.69
2022-11-24T00:39:11.916Z,97533.06
2022-11-24T00:40:13.335Z,97531.88
2022-11-24T00:41:15.166Z,97535.25
2022-11-24T00:42:17.057Z,97540.94
2022-11-24T00:43:19.390Z,97543.94
2022-11-24T00:44:20.946Z,97545.13
2022-11-24T00:45:22.366Z,97544.72
2022-11-24T00:46:25.345Z,97544.44
2022-11-24T00:47:37.857Z,97537.75
2022-11-24T00:48:39.348Z,97547.47
2022-11-24T00:49:40.761Z,97544.50
2022-11-24T00:50:42.410Z,97547.22
2022-11-24T00:51:44.248Z,97555.16
2022-11-24T00:52:45.730Z,97548.41
2022-11-24T00:53:47.373Z,97548.88
2022-11-24T00:54:48.858Z,97546.66
2022-11-24T00:55:51.963Z,97549.34
2022-11-24T00:56:53.732Z,97543.75
2022-11-24T00:57:55.214Z,97543.75
2022-11-24T00:58:56.654Z,97559.97
2022-11-24T00:59:58.066Z,97562.66
2022-11-24T01:01:09.076Z,97553.75
2022-11-24T01:02:10.706Z,97546.56
2022-11-24T01:03:15.892Z,97550.78
2022-11-24T01:04:18.003Z,97557.28
2022-11-24T01:05:19.431Z,97558.88
2022-11-24T01:06:24.306Z,97562.31
2022-11-24T01:07:25.758Z,97559.72
2022-11-24T01:08:27.229Z,97563.94
2022-11-24T01:09:28.704Z,97568.78
2022-11-24T01:10:30.385Z,97571.34
2022-11-24T01:11:54.849Z,97571.34
2022-11-24T01:12:56.343Z,97571.63
2022-11-24T01:13:59.429Z,97568.72
2022-11-24T01:15:00.864Z,97578.16
2022-11-24T01:16:02.384Z,97581.13
2022-11-24T01:17:04.502Z,97581.97
2022-11-24T01:18:06.364Z,97576.00
2022-11-24T01:19:07.804Z,97578.69
2022-11-24T01:20:09.905Z,97578.69
2022-11-24T01:21:12.167Z,97583.94
2022-11-24T01:22:13.748Z,97581.78
2022-11-24T01:23:15.212Z,97584.84
2022-11-24T01:24:16.949Z,97587.50
2022-11-24T01:25:18.416Z,97583.44
2022-11-24T01:26:21.829Z,97592.34
2022-11-24T01:27:23.237Z,97589.44
2022-11-24T01:28:24.643Z,97593.66
2022-11-24T01:29:26.148Z,97595.22
2022-11-24T01:30:27.544Z,97590.06
2022-11-24T01:31:29.430Z,97596.44
2022-11-24T01:32:33.174Z,97599.13
2022-11-24T01:33:36.137Z,97590.91
2022-11-24T01:34:37.534Z,97593.97
2022-11-24T01:35:38.934Z,97591.34
2022-11-24T01:36:40.680Z,97598.50
2022-11-24T01:37:42.118Z,97599.59
2022-11-24T01:38:43.827Z,97602.28
2022-11-24T01:39:45.245Z,97610.22
2022-11-24T01:40:47.033Z,97603.88
2022-11-24T01:41:48.485Z,97605.03
2022-11-24T01:42:52.326Z,97609.50
2022-11-24T01:43:55.515Z,97599.44
2022-11-24T01:45:30.568Z,97604.72
2022-11-24T01:46:42.512Z,97605.16
2022-11-24T01:47:44.376Z,97611.16
2022-11-24T01:48:52.167Z,97609.72
2022-11-24T01:49:57.311Z,97610.47
2022-11-24T01:51:08.352Z,97616.13
2022-11-24T01:52:33.074Z,97616.13
2022-11-24T01:53:35.666Z,97618.72
2022-11-24T01:54:41.756Z,97623.16
2022-11-24T01:55:43.589Z,97619.38
2022-11-24T01:56:48.689Z,97623.16
2022-11-24T01:58:19.142Z,97620.22
2022-11-24T01:59:21.755Z,97620.59
2022-11-24T02:00:23.318Z,97621.00
2022-11-24T02:01:25.523Z,97620.66
2022-11-24T02:02:29.753Z,97625.91
2022-11-24T02:03:35.635Z,97626.69
2022-11-24T02:04:37.791Z,97620.66
2022-11-24T02:05:44.833Z,97629.31
2022-11-24T02:06:48.115Z,97626.31
2022-11-24T02:07:50.295Z,97632.31
2022-11-24T02:09:11.614Z,97624.81
2022-11-24T02:10:16.460Z,97630.06
2022-11-24T02:11:19.792Z,97625.50
2022-11-24T02:12:27.266Z,97630.00
2022-11-24T02:13:28.733Z,97630.00
2022-11-24T02:14:30.317Z,97630.00
2022-11-24T02:15:32.207Z,97629.59
2022-11-24T02:16:37.276Z,97634.84
2022-11-24T02:17:38.649Z,97633.66
2022-11-24T02:18:41.902Z,97631.03
2022-11-24T02:19:53.592Z,97636.28
2022-11-24T02:20:55.926Z,97634.78
2022-11-24T02:21:57.790Z,97634.03
2022-11-24T02:23:11.119Z,97641.53
2022-11-24T02:24:25.182Z,97640.44
2022-11-24T02:25:39.549Z,97630.66
2022-11-24T02:26:45.937Z,97633.56
2022-11-24T02:27:53.559Z,97633.19
2022-11-24T02:28:55.870Z,97636.19
2022-11-24T02:29:57.340Z,97639.13
2022-11-24T02:31:00.440Z,97643.31
2022-11-24T02:32:04.998Z,97644.81
2022-11-24T02:33:06.627Z,97638.81
2022-11-24T02:34:08.022Z,97639.22
2022-11-24T02:35:10.997Z,97650.88
2022-11-24T02:36:12.593Z,97643.78
2022-11-24T02:37:14.024Z,97637.00
2022-11-24T02:38:15.396Z,97638.09
2022-11-24T02:39:16.991Z,97641.47
2022-11-24T02:40:25.451Z,97642.59
2022-11-24T02:41:29.075Z,97639.28
2022-11-24T02:42:35.982Z,97643.63
2022-11-24T02:43:42.724Z,97639.50
2022-11-24T02:44:49.310Z,97645.94
2022-11-24T02:45:50.815Z,97643.69
2022-11-24T02:47:06.042Z,97641.84
2022-11-24T02:48:07.844Z,97642.59
2022-11-24T02:49:09.263Z,97651.97
2022-11-24T02:50:10.714Z,97651.28
2022-11-24T02:51:12.650Z,97653.91
2022-11-24T02:52:14.164Z,97651.28
2022-11-24T02:53:15.607Z,97654.66
2022-11-24T02:54:17.039Z,97659.91
2022-11-24T02:55:18.552Z,97649.09
2022-11-24T02:56:20.297Z,97657.34
2022-11-24T02:57:23.265Z,97653.22
2022-11-24T02:58:24.655Z,97655.41
2022-11-24T02:59:26.105Z,97661.78
2022-11-24T03:00:27.508Z,97658.78
2022-11-24T03:01:29.286Z,97658.78
2022-11-24T03:02:30.795Z,97657.72
2022-11-24T03:03:32.258Z,97659.22
2022-11-24T03:04:34.018Z,97666.00
2022-11-24T03:05:35.729Z,97667.50
2022-11-24T03:06:38.311Z,97672.00
2022-11-24T03:07:39.827Z,97666.75
2022-11-24T03:08:41.314Z,97670.47
2022-11-24T03:09:42.744Z,97669.38
2022-11-24T03:10:44.481Z,97663.00
2022-11-24T03:11:46.477Z,97670.53
2022-11-24T03:12:47.888Z,97670.94
2022-11-24T03:13:49.812Z,97672.06
2022-11-24T03:14:51.829Z,97682.19
2022-11-24T03:15:53.332Z,97671.69
2022-11-24T03:16:55.121Z,97681.44
2022-11-24T03:17:56.947Z,97672.81
2022-11-24T03:18:59.089Z,97680.28
2022-11-24T03:20:04.783Z,97678.06
2022-11-24T03:21:07.119Z,97675.81
2022-11-24T03:22:08.875Z,97682.91
2022-11-24T03:23:10.569Z,97681.06
2022-11-24T03:24:11.993Z,97682.56
2022-11-24T03:25:13.402Z,97678.06
2022-11-24T03:26:18.750Z,97680.69
2022-11-24T03:27:21.260Z,97688.56
2022-11-24T03:28:22.693Z,97682.56
2022-11-24T03:29:24.113Z,97690.44
2022-11-24T03:30:26.072Z,97689.31
2022-11-24T03:31:27.722Z,97690.06
2022-11-24T03:32:29.598Z,97689.31
2022-11-24T03:33:31.055Z,97690.44
2022-11-24T03:34:32.894Z,97694.56
2022-11-24T03:35:34.519Z,97693.47
2022-11-24T03:36:35.917Z,97688.97
2022-11-24T03:37:37.795Z,97694.22
2022-11-24T03:38:39.234Z,97695.00
2022-11-24T03:39:40.642Z,97690.50
2022-11-24T03:40:42.052Z,97690.50
2022-11-24T03:41:43.522Z,97695.41
2022-11-24T03:42:45.673Z,97704.78
2022-11-24T03:43:47.145Z,97696.91
2022-11-24T03:44:48.672Z,97695.00
2022-11-24T03:45:51.102Z,97693.16
2022-11-24T03:46:52.495Z,97701.03
2022-11-24T03:47:54.225Z,97701.81
2022-11-24T03:48:55.645Z,97696.56
2022-11-24T03:49:57.065Z,97702.59
2022-11-24T03:51:01.243Z,97695.78
2022-11-24T03:52:07.803Z,97699.53
2022-11-24T03:53:10.386Z,97698.84
2022-11-24T03:54:11.963Z,97709.00
2022-11-24T03:55:13.444Z,97702.22
2022-11-24T03:56:14.990Z,97708.22
2022-11-24T03:57:16.424Z,97699.25
2022-11-24T03:58:18.263Z,97702.97
2022-11-24T03:59:19.772Z,97702.63
2022-11-24T04:00:21.433Z,97701.09
2022-11-24T04:01:23.005Z,97704.50
2022-11-24T04:02:24.497Z,97704.16
2022-11-24T04:03:26.896Z,97710.16
2022-11-24T04:04:28.293Z,97704.16
2022-11-24T04:05:29.871Z,97710.56
2022-11-24T04:06:31.514Z,97710.56
2022-11-24T04:07:33.201Z,97711.31
2022-11-24T04:08:35.027Z,97712.06
2022-11-24T04:09:36.420Z,97718.88
2022-11-24T04:10:39.000Z,97716.25
2022-11-24T04:11:58.897Z,97719.63
2022-11-24T04:13:00.302Z,97718.13
2022-11-24T04:14:01.722Z,97721.50
2022-11-24T04:15:03.328Z,97720.75
2022-11-24T04:16:08.235Z,97722.25
2022-11-24T04:17:09.680Z,97724.88
2022-11-24T04:18:13.125Z,97724.06
2022-11-24T04:19:14.846Z,97724.06
2022-11-24T04:20:17.338Z,97727.44
2022-11-24T04:21:19.227Z,97723.28
2022-11-24T04:22:20.611Z,97729.31
2022-11-24T04:23:22.528Z,97731.56
2022-11-24T04:24:24.052Z,97724.06
2022-11-24T04:25:25.526Z,97729.22
2022-11-24T04:26:26.956Z,97728.88
2022-11-24T04:27:28.668Z,97732.69
2022-11-24T04:28:30.399Z,97730.13
2022-11-24T04:29:31.891Z,97738.03
2022-11-24T04:30:33.514Z,97733.91
2022-11-24T04:31:34.991Z,97736.22
2022-11-24T04:32:37.041Z,97742.97
2022-11-24T04:33:38.803Z,97734.34
2022-11-24T04:34:40.268Z,97743.38
2022-11-24T04:35:41.706Z,97749.38
2022-11-24T04:36:43.122Z,97748.63
2022-11-24T04:37:44.605Z,97744.47
2022-11-24T04:39:19.404Z,97744.84
2022-11-24T04:40:09.908Z,97747.47
2022-11-24T04:41:11.384Z,97754.22
2022-11-24T04:42:13.113Z,97754.59
2022-11-24T04:43:16.155Z,97759.06
2022-11-24T04:44:17.884Z,97755.75
2022-11-24T04:45:19.282Z,97762.94
2022-11-24T04:46:20.760Z,97747.50
2022-11-24T04:47:23.955Z,97760.31
2022-11-24T04:48:25.386Z,97759.13
2022-11-24T04:49:27.417Z,97766.25
2022-11-24T04:50:28.860Z,97762.09
2022-11-24T04:51:30.264Z,97762.88
2022-11-24T04:52:31.672Z,97762.88
2022-11-24T04:53:33.113Z,97766.31
2022-11-24T04:54:35.110Z,97764.50
2022-11-24T04:55:38.808Z,97768.66
2022-11-24T04:56:41.502Z,97767.19
2022-11-24T04:57:42.947Z,97772.50
2022-11-24T04:58:44.402Z,97779.25
2022-11-24T04:59:46.271Z,97774.00
2022-11-24T05:00:47.710Z,97771.06
2022-11-24T05:01:49.169Z,97778.22
2022-11-24T05:02:50.621Z,97776.03
2022-11-24T05:03:56.011Z,97781.66
2022-11-24T05:04:57.457Z,97779.78
2022-11-24T05:05:59.737Z,97787.34
2022-11-24T05:07:01.197Z,97783.25
2022-11-24T05:08:03.070Z,97783.25
2022-11-24T05:09:05.643Z,97787.00
2022-11-24T05:10:26.586Z,97784.72
2022-11-24T05:11:28.085Z,97784.00
2022-11-24T05:12:31.232Z,97782.09
2022-11-24T05:13:33.220Z,97791.13
2022-11-24T05:14:35.108Z,97787.38
2022-11-24T05:15:38.236Z,97795.63
2022-11-24T05:16:39.616Z,97795.56
2022-11-24T05:17:41.322Z,97787.69
2022-11-24T05:18:42.776Z,97795.28
2022-11-24T05:19:44.616Z,97791.13
2022-11-24T05:20:46.136Z,97800.13
2022-11-24T05:21:47.548Z,97793.69
2022-11-24T05:22:49.386Z,97795.56
2022-11-24T05:23:50.818Z,97792.25
2022-11-24T05:24:52.296Z,97797.44
2022-11-24T05:25:53.861Z,97792.25
2022-11-24T05:26:55.296Z,97794.41
2022-11-24T05:28:03.964Z,97798.16
2022-11-24T05:29:05.394Z,97798.53
2022-11-24T05:30:07.823Z,97793.69
2022-11-24T05:31:09.310Z,97796.69
2022-11-24T05:32:10.890Z,97799.78
2022-11-24T05:33:19.245Z,97795.75
2022-11-24T05:34:21.409Z,97801.00
2022-11-24T05:35:23.405Z,97794.28
2022-11-24T05:36:43.233Z,97801.34
2022-11-24T05:37:45.133Z,97793.13
2022-11-24T05:38:46.598Z,97805.97
2022-11-24T05:39:48.562Z,97805.16
2022-11-24T05:40:49.974Z,97799.25
2022-11-24T05:41:51.573Z,97808.25
2022-11-24T05:42:53.008Z,97796.63
2022-11-24T05:43:54.475Z,97801.53
2022-11-24T05:44:56.244Z,97806.38
2022-11-24T05:46:01.570Z,97811.63
2022-11-24T05:47:03.066Z,97813.59
2022-11-24T05:48:06.443Z,97814.75
2022-11-24T05:49:07.886Z,97817.75
2022-11-24T05:50:11.651Z,97817.38
2022-11-24T05:51:13.157Z,97814.34
2022-11-24T05:52:15.150Z,97816.97
2022-11-24T05:53:16.590Z,97818.13
2022-11-24T05:54:18.336Z,97823.34
2022-11-24T05:55:19.947Z,97823.66
2022-11-24T05:56:21.383Z,97827.81
2022-11-24T05:57:22.955Z,97826.25
2022-11-24T05:58:24.393Z,97832.25
2022-11-24T05:59:26.144Z,97832.59
2022-11-24T06:00:28.870Z,97825.41
2022-11-24T06:01:30.334Z,97824.53
2022-11-24T06:02:31.932Z,97825.56
2022-11-24T06:03:33.674Z,97820.31
2022-11-24T06:04:35.574Z,97823.69
2022-11-24T06:05:37.326Z,97820.22
2022-11-24T06:06:38.819Z,97820.59
2022-11-24T06:07:40.513Z,97828.03
2022-11-24T06:08:41.949Z,97830.28
2022-11-24T06:09:43.630Z,97836.66
2022-11-24T06:10:45.035Z,97837.34
2022-11-24T06:11:47.701Z,97835.44
2022-11-24T06:12:49.243Z,97838.06
2022-11-24T06:13:50.733Z,97829.00
2022-11-24T06:14:52.687Z,97836.13
2022-11-24T06:15:54.284Z,97835.34
2022-11-24T06:16:55.842Z,97839.50
2022-11-24T06:17:57.309Z,97835.44
2022-11-24T06:18:59.989Z,97836.59
2022-11-24T06:20:01.815Z,97844.00
2022-11-24T06:21:10.905Z,97831.91
2022-11-24T06:22:13.272Z,97838.63
2022-11-24T06:23:14.701Z,97832.25
2022-11-24T06:24:16.651Z,97842.00
2022-11-24T06:25:18.301Z,97835.22
2022-11-24T06:26:19.944Z,97837.91
2022-11-24T06:27:21.421Z,97832.66
2022-11-24T06:28:22.878Z,97834.69
2022-11-24T06:29:24.683Z,97833.03
2022-11-24T06:30:26.120Z,97838.69
2022-11-24T06:31:27.641Z,97840.19
2022-11-24T06:32:29.263Z,97845.72
2022-11-24T06:33:35.359Z,97844.97
2022-11-24T06:34:37.347Z,97843.94
2022-11-24T06:35:38.951Z,97837.16
2022-11-24T06:36:40.454Z,97846.47
2022-11-24T06:37:41.903Z,97841.22
2022-11-24T06:38:43.616Z,97843.53
2022-11-24T06:39:45.429Z,97844.63
2022-11-24T06:40:46.847Z,97845.44
2022-11-24T06:41:50.224Z,97837.66
2022-11-24T06:42:52.870Z,97838.75
2022-11-24T06:43:54.529Z,97842.56
2022-11-24T06:44:56.320Z,97842.22
2022-11-24T06:45:58.157Z,97843.72
2022-11-24T06:46:59.621Z,97844.38
2022-11-24T06:48:01.125Z,97845.53
2022-11-24T06:49:03.039Z,97847.47
2022-11-24T06:50:05.002Z,97852.66
2022-11-24T06:51:10.434Z,97859.09
2022-11-24T06:52:12.047Z,97848.22
2022-11-24T06:53:13.640Z,97857.88
2022-11-24T06:54:17.130Z,97857.13
2022-11-24T06:55:18.621Z,97859.34
2022-11-24T06:56:21.281Z,97857.41
2022-11-24T06:57:22.711Z,97859.28
2022-11-24T06:58:24.317Z,97858.94
2022-11-24T06:59:26.550Z,97862.38
2022-11-24T07:00:29.395Z,97861.28
2022-11-24T07:01:31.107Z,97861.63
2022-11-24T07:02:32.723Z,97867.16
2022-11-24T07:03:34.301Z,97866.72
2022-11-24T07:04:36.004Z,97867.47
2022-11-24T07:05:37.757Z,97868.59
2022-11-24T07:06:41.870Z,97864.19
2022-11-24T07:07:43.337Z,97865.38
2022-11-24T07:08:45.523Z,97868.41
2022-11-24T07:09:46.961Z,97876.94
2022-11-24T07:10:48.364Z,97869.91
2022-11-24T07:11:49.771Z,97874.06
2022-11-24T07:12:51.227Z,97878.97
2022-11-24T07:13:58.181Z,97879.31
2022-11-24T07:15:01.733Z,97879.66
2022-11-24T07:16:13.258Z,97877.38
2022-11-24T07:17:14.700Z,97877.66
2022-11-24T07:18:16.140Z,97876.63
2022-11-24T07:19:23.098Z,97889.84
2022-11-24T07:20:26.370Z,97881.59
2022-11-24T07:21:29.136Z,97889.56
2022-11-24T07:22:30.589Z,97886.97
2022-11-24T07:23:32.051Z,97888.53
2022-11-24T07:24:33.772Z,97885.47
2022-11-24T07:25:35.502Z,97883.94
2022-11-24T07:26:37.488Z,97886.94
2022-11-24T07:27:39.165Z,97888.84
2022-11-24T07:28:40.611Z,97891.91
2022-11-24T07:29:42.438Z,97892.66
2022-11-24T07:30:43.854Z,97893.78
2022-11-24T07:31:46.056Z,97891.19
2022-11-24T07:32:47.573Z,97892.66
2022-11-24T07:33:50.286Z,97899.34
2022-11-24T07:34:52.035Z,97895.63
2022-11-24T07:35:53.754Z,97901.69
2022-11-24T07:36:55.206Z,97908.75
2022-11-24T07:37:57.507Z,97906.56
2022-11-24T07:38:59.288Z,97899.06
2022-11-24T07:40:00.696Z,97905.88
2022-11-24T07:41:04.360Z,97905.16
2022-11-24T07:42:06.753Z,97912.34
2022-11-24T07:43:08.161Z,97912.34
2022-11-24T07:44:09.599Z,97906.41
2022-11-24T07:45:11.076Z,97905.88
2022-11-24T07:46:14.832Z,97912.34
2022-11-24T07:47:16.274Z,97909.38
2022-11-24T07:48:17.669Z,97914.22
2022-11-24T07:49:19.762Z,97916.50
2022-11-24T07:50:21.189Z,97916.50
2022-11-24T07:51:22.649Z,97918.78
2022-11-24T07:52:26.620Z,97918.44
2022-11-24T07:53:29.085Z,97921.34
2022-11-24T07:54:31.432Z,97918.44
2022-11-24T07:55:33.050Z,97915.47
2022-11-24T07:56:34.518Z,97912.44
2022-11-24T07:57:36.194Z,97918.78
2022-11-24T07:58:38.107Z,97916.22
2022-11-24T07:59:39.567Z,97917.25
2022-11-24T08:00:40.974Z,97921.06
2022-11-24T08:01:42.474Z,97917.75
2022-11-24T08:02:44.652Z,97917.81
2022-11-24T08:03:46.215Z,97921.47
2022-11-24T08:04:47.759Z,97920.03
2022-11-24T08:06:22.253Z,97914.44
2022-11-24T08:07:17.876Z,97920.63
2022-11-24T08:08:19.363Z,97924.09
2022-11-24T08:09:20.889Z,97924.25
2022-11-24T08:10:22.314Z,97921.63
2022-11-24T08:11:24.146Z,97916.41
2022-11-24T08:12:25.716Z,97920.91
2022-11-24T08:13:27.133Z,97916.97
2022-11-24T08:14:28.882Z,97916.63
2022-11-24T08:15:30.294Z,97920.50
2022-11-24T08:16:32.286Z,97919.81
2022-11-24T08:17:33.743Z,97918.38
2022-11-24T08:18:36.722Z,97913.19
2022-11-24T08:19:38.071Z,97919.66
2022-11-24T08:20:39.398Z,97914.75
2022-11-24T08:21:40.802Z,97920.34
2022-11-24T08:22:42.609Z,97915.25
2022-11-24T08:23:44.532Z,97912.47
2022-11-24T08:24:49.203Z,97920.84
2022-11-24T08:25:55.602Z,97921.00
2022-11-24T08:26:58.340Z,97913.59
2022-11-24T08:28:01.188Z,97919.03
2022-11-24T08:29:02.660Z,97916.75
2022-11-24T08:30:04.522Z,97921.78
2022-11-24T08:31:08.371Z,97918.16
2022-11-24T08:32:11.154Z,97923.97
2022-11-24T08:33:12.853Z,97921.66
2022-11-24T08:34:14.601Z,97924.78
2022-11-24T08:35:16.077Z,97933.13
2022-11-24T08:36:19.209Z,97927.81
2022-11-24T08:37:20.797Z,97922.19
2022-11-24T08:38:22.230Z,97923.25
2022-11-24T08:39:23.735Z,97928.34
2022-11-24T08:40:25.151Z,97925.31
2022-11-24T08:41:27.489Z,97929.44
2022-11-24T08:42:28.949Z,97921.66
2022-11-24T08:43:30.631Z,97923.38
2022-11-24T08:44:32.707Z,97931.72
2022-11-24T08:45:38.268Z,97923.66
2022-11-24T08:46:42.952Z,97922.25
2022-11-24T08:47:44.479Z,97926.81
2022-11-24T08:48:52.371Z,97922.72
2022-11-24T08:49:53.779Z,97925.81
2022-11-24T08:50:55.716Z,97930.44
2022-11-24T08:51:57.919Z,97923.47
2022-11-24T08:52:59.382Z,97925.88
2022-11-24T08:54:01.873Z,97926.22
2022-11-24T08:55:03.516Z,97929.44
2022-11-24T08:56:06.204Z,97935.47
2022-11-24T08:57:07.627Z,97933.25
2022-11-24T08:58:09.090Z,97924.19
2022-11-24T08:59:14.964Z,97929.94
2022-11-24T09:00:22.328Z,97929.28
2022-11-24T09:01:24.527Z,97936.97
2022-11-24T09:02:26.012Z,97929.94
2022-11-24T09:03:27.433Z,97928.88
2022-11-24T09:04:29.261Z,97926.22
2022-11-24T09:05:59.151Z,97933.44
2022-11-24T09:06:52.031Z,97942.50
2022-11-24T09:07:53.464Z,97934.31
2022-11-24T09:08:55.568Z,97940.97
2022-11-24T09:09:57.225Z,97939.06
2022-11-24T09:11:07.546Z,97936.06
2022-11-24T09:12:14.294Z,97937.50
2022-11-24T09:13:16.178Z,97941.69
2022-11-24T09:14:18.023Z,97936.00
2022-11-24T09:15:20.351Z,97947.34
2022-11-24T09:16:28.883Z,97939.00
2022-11-24T09:17:30.552Z,97944.66
2022-11-24T09:18:33.339Z,97954.72
2022-11-24T09:19:35.479Z,97945.72
2022-11-24T09:20:37.178Z,97949.97
2022-11-24T09:21:39.069Z,97958.56
2022-11-24T09:22:41.720Z,97949.31
2022-11-24T09:23:44.455Z,97953.13
2022-11-24T09:24:45.866Z,97952.69
2022-11-24T09:25:47.672Z,97951.88
2022-11-24T09:26:49.099Z,97947.66
2022-11-24T09:27:51.148Z,97948.03
2022-11-24T09:28:54.838Z,97956.28
2022-11-24T09:29:56.271Z,97955.84
2022-11-24T09:31:01.927Z,97956.34
2022-11-24T09:32:06.732Z,97956.34
2022-11-24T09:33:08.651Z,97961.31
2022-11-24T09:34:13.605Z,97958.97
2022-11-24T09:35:15.050Z,97952.28
2022-11-24T09:36:16.698Z,97963.09
2022-11-24T09:37:18.509Z,97962.94
2022-11-24T09:38:20.218Z,97966.09
2022-11-24T09:39:21.774Z,97954.56
2022-11-24T09:40:23.235Z,97961.28
2022-11-24T09:41:46.223Z,97956.84
2022-11-24T09:43:17.835Z,97965.91
2022-11-24T09:44:49.600Z,97955.56
2022-11-24T09:46:20.024Z,97959.06
2022-11-24T09:47:46.395Z,97964.00
2022-11-24T09:48:51.317Z,97961.00
2022-11-24T09:49:55.535Z,97961.84
2022-11-24T09:51:01.503Z,97966.72
2022-11-24T09:52:09.491Z,97964.78
2022-11-24T09:53:31.324Z,97968.25
2022-11-24T09:54:34.913Z,97963.06
2022-11-24T09:55:42.481Z,97969.75
2022-11-24T09:56:45.472Z,97962.28
2022-11-24T09:57:49.144Z,97966.88
2022-11-24T09:58:55.665Z,97967.97
2022-11-24T10:00:01.993Z,97968.78
2022-11-24T10:01:35.681Z,97960.59
2022-11-24T10:02:37.184Z,97962.47
2022-11-24T10:03:43.505Z,97967.03
2022-11-24T10:04:47.486Z,97969.75
2022-11-24T10:05:51.342Z,97970.50
2022-11-24T10:07:09.337Z,97958.38
2022-11-24T10:08:34.506Z,97969.25
2022-11-24T10:09:57.642Z,97971.34
2022-11-24T10:11:11.392Z,97977.13
2022-11-24T10:12:33.921Z,97978.66
2022-11-24T10:14:04.276Z,97979.34
2022-11-24T10:15:25.651Z,97981.75
2022-11-24T10:16:39.024Z,97985.44
2022-11-24T10:17:45.564Z,97991.16
2022-11-24T10:19:14.750Z,97987.66
2022-11-24T10:20:26.663Z,97985.53
2022-11-24T10:21:44.944Z,97982.47
2022-11-24T10:23:01.387Z,97987.13
2022-11-24T10:24:34.439Z,97989.38
2022-11-24T10:25:47.477Z,97992.69
2022-11-24T10:27:00.644Z,97987.31
2022-11-24T10:28:04.901Z,97993.19
2022-11-24T10:29:15.571Z,97994.50
2022-11-24T10:30:23.830Z,97986.28
2022-11-24T10:31:42.520Z,97990.44
2022-11-24T10:32:47.368Z,97984.13
2022-11-24T10:33:49.372Z,97989.75
2022-11-24T10:34:51.160Z,97998.38
2022-11-24T10:35:56.971Z,97985.94
2022-11-24T10:37:08.250Z,97995.28
2022-11-24T10:38:21.820Z,97997.19
2022-11-24T10:39:39.037Z,97980.41
2022-11-24T10:40:57.042Z,97978.81
2022-11-24T10:42:07.559Z,97994.66
2022-11-24T10:43:12.465Z,97989.78
2022-11-24T10:44:15.130Z,97988.69
2022-11-24T10:45:20.188Z,97990.53
2022-11-24T10:46:27.463Z,97992.88
2022-11-24T10:47:30.717Z,97985.72
2022-11-24T10:48:41.069Z,97984.31
2022-11-24T10:49:51.199Z,97983.56
2022-11-24T10:50:56.700Z,97988.00
2022-11-24T10:52:07.097Z,97988.34
2022-11-24T10:53:08.541Z,97986.47
2022-11-24T10:54:20.355Z,97990.69
2022-11-24T10:55:22.135Z,97988.47
2022-11-24T10:56:23.585Z,97994.84
2022-11-24T10:57:29.006Z,97994.75
2022-11-24T10:58:36.050Z,97996.16
2022-11-24T10:59:40.303Z,97999.63
2022-11-24T11:00:41.807Z,97995.53
2022-11-24T11:01:43.301Z,98001.06
2022-11-24T11:02:45.762Z,97997.75
2022-11-24T11:03:56.300Z,97996.03
2022-11-24T11:04:58.594Z,97992.84
2022-11-24T11:06:11.754Z,97990.25
2022-11-24T11:07:25.377Z,97993.41
2022-11-24T11:08:34.971Z,97990.69
2022-11-24T11:09:37.041Z,97992.88
2022-11-24T11:10:38.705Z,97993.38
2022-11-24T11:11:40.226Z,97992.47
2022-11-24T11:12:44.400Z,97994.75
2022-11-24T11:14:01.718Z,97995.25
2022-11-24T11:15:23.207Z,98001.31
2022-11-24T11:16:41.435Z,98001.31
2022-11-24T11:17:44.775Z,98000.84
2022-11-24T11:18:49.336Z,97994.91
2022-11-24T11:19:58.447Z,98000.09
2022-11-24T11:21:03.787Z,98006.09
2022-11-24T11:22:11.286Z,97996.84
2022-11-24T11:23:22.891Z,98000.03
2022-11-24T11:24:24.438Z,98003.41
2022-11-24T11:25:34.550Z,97998.44
2022-11-24T11:26:38.204Z,97997.81
2022-11-24T11:27:41.124Z,98001.06
2022-11-24T11:28:56.562Z,97998.28
2022-11-24T11:31:41.154Z,98000.78
2022-11-24T11:34:28.470Z,98006.50
2022-11-24T11:35:36.522Z,98001.97
2022-11-24T11:36:46.777Z,97997.81
2022-11-24T11:37:49.585Z,98001.69
2022-11-24T11:38:51.158Z,98008.09
2022-11-24T11:39:55.108Z,98006.03
2022-11-24T11:40:56.941Z,98011.38
2022-11-24T11:42:37.901Z,98010.50
2022-11-24T11:43:41.020Z,98015.88
2022-11-24T11:44:57.923Z,98008.44
2022-11-24T11:46:05.105Z,98008.19
2022-11-24T11:47:26.215Z,98010.59
2022-11-24T11:48:43.366Z,98007.00
2022-11-24T11:49:48.359Z,98003.69
2022-11-24T11:52:40.243Z,98007.66
2022-11-24T11:53:51.131Z,98003.94
2022-11-24T11:55:05.315Z,98002.97
2022-11-24T11:56:25.029Z,98013.22
2022-11-24T11:57:40.538Z,98009.47
2022-11-24T11:59:10.042Z,98011.41
2022-11-24T12:00:22.033Z,98013.28
2022-11-24T12:01:50.712Z,98008.00
2022-11-24T12:03:29.830Z,98016.25
2022-11-24T12:04:40.307Z,98005.78
2022-11-24T12:05:55.226Z,98018.25
2022-11-24T12:07:00.053Z,98020.59
2022-11-24T12:09:03.378Z,98017.19
2022-11-24T12:10:05.213Z,98011.88
2022-11-24T12:11:18.535Z,98011.53
2022-11-24T12:12:38.459Z,98018.78
2022-11-24T12:14:23.762Z,98015.84
2022-11-24T12:15:37.939Z,98021.25
2022-11-24T12:16:52.148Z,98027.66
2022-11-24T12:18:33.012Z,98025.22
2022-11-24T12:20:02.258Z,98021.59
2022-11-24T12:21:12.885Z,98023.91
2022-11-24T12:22:26.817Z,98019.91
2022-11-24T12:23:57.180Z,98028.19
2022-11-24T12:25:23.342Z,98032.03
2022-11-24T12:26:44.074Z,98029.31
2022-11-24T12:28:19.042Z,98028.19
2022-11-24T12:29:34.542Z,98036.56
2022-11-24T12:31:04.498Z,98037.06
2022-11-24T12:32:27.783Z,98041.41
2022-11-24T12:33:52.312Z,98035.41
2022-11-24T12:35:06.606Z,98046.75
2022-11-24T12:36:27.132Z,98040.16
2022-11-24T12:37:54.820Z,98035.66
2022-11-24T12:39:19.629Z,98046.69
2022-11-24T12:41:25.499Z,98049.84
2022-11-24T12:43:05.685Z,98056.66
2022-11-24T12:44:27.186Z,98047.59
2022-11-24T12:45:37.833Z,98044.66
2022-11-24T12:47:35.029Z,98052.19
2022-11-24T12:49:08.375Z,98053.22
2022-11-24T12:50:14.581Z,98055.34
2022-11-24T12:51:18.969Z,98052.88
2022-11-24T12:52:26.747Z,98045.34